HALF-HOURLY OBSERVATIONS INDEX

005

Pilbara - Fortescue

BARROW ISLAND AIRPORT

Site: 005094
Alt: 6.4m
90km NNE of ONSLOW


  Time     Wind        Temp  DP   Baro     Rain since   Rain past  Vis(m), Cloud(base in m), Weather
  local        km/h                         9am  last   hr   10m    
Mon 08:00   SW 24/ 32  27.8 23.8  1010.6    0.0   0.0   0.0   0.0   ----- 
Mon 08:30   SW 26/ 32  28.2 23.3  1010.9    0.0   0.0   0.0   0.0   ----- 
Mon 09:00   SW 26/ 32  28.8 23.7  1010.9    0.0   0.0   0.0   0.0   ----- 
Mon 09:30  SSW 26/ 30  29.4 23.8  1011.0    0.0   0.0   0.0   0.0   ----- 
Mon 10:00   SW 26/ 32  29.4 23.4  1010.8    0.0   0.0   0.0   0.0   ----- 
Mon 10:30   SW 30/ 35  29.7 23.2  1010.5    0.0   0.0   0.0   0.0   ----- 
Mon 11:00   SW 33/ 39  29.8 22.8  1010.3    0.0   0.0   0.0   0.0   ----- 
Mon 11:30   SW 33/ 41  30.1 23.5  1009.8    0.0   0.0   0.0   0.0   ----- 
Mon 12:00   SW 33/ 41  29.9 23.3  1009.5    0.0   0.0   0.0   0.0   ----- 
Mon 12:30   SW 35/ 43  30.2 23.9  1009.2    0.0   0.0   0.0   0.0   ----- 
Mon 13:00   SW 33/ 39  30.1 24.0  1009.0    0.0   0.0   0.0   0.0   ----- 
Mon 13:30   SW 33/ 41  30.3 23.2  1008.6    0.0   0.0   0.0   0.0   ----- 

BOOLGEEDA AIRPORT

Site: 005BGD
Alt: 585m
207km SSE of KARRATHA


  Time     Wind        Temp  DP   Baro     Rain since   Rain past  Vis(m), Cloud(base in m), Weather
  local        km/h                         9am  last   hr   10m    
Mon 08:00    W  9/ 15  26.9 21.2  1014.1    0.0   0.0   0.0   0.0   10000 
Mon 08:30    W  9/ 17  27.7 21.0  1014.3    0.0   0.0   0.0   0.0   10000 
Mon 09:00   SW  7/ 15  28.8 21.1  1014.3    0.0   0.0   0.0   0.0   10000 
Mon 09:30   SW  7/ 15  30.2 20.2  1014.0    0.0   0.0   0.0   0.0   10000 
Mon 10:00   SW 13/ 22  32.0 18.6  1013.6    0.0   0.0   0.0   0.0   10000 
Mon 10:30  WSW  9/ 20  33.1 16.5  1013.5    0.0   0.0   0.0   0.0   10000 
Mon 11:00   SW 13/ 24  34.4 15.8  1013.2    0.0   0.0   0.0   0.0   10000 
Mon 11:30  WSW 13/ 30  36.0 15.7  1012.8    0.0   0.0   0.0   0.0   10000 
Mon 12:00  WSW 17/ 26  36.8 15.3  1012.4    0.0   0.0   0.0   0.0   10000 
Mon 12:30  WSW 19/ 32  37.4 14.0  1011.7    0.0   0.0   0.0   0.0   10000 
Mon 13:00  WSW 20/ 33  38.0 12.6  1011.4    0.0   0.0   0.0   0.0   10000 
Mon 13:30  WSW 19/ 33  38.9 11.1  1011.1    0.0   0.0   0.0   0.0   10000 

CHRISTMAS CREEK MINE AP

Site: 005CHK
Alt: m
111km N of NEWMAN


  Time     Wind        Temp  DP   Baro     Rain since   Rain past  Vis(m), Cloud(base in m), Weather
  local        km/h                         9am  last   hr   10m    
Mon 08:00    S 19/ 24  32.9 17.9  1011.9    0.0   0.0   0.0   0.0   10000 
Mon 08:30    S 15/ 22  33.5 17.6  1012.1    0.0   0.0   0.0   0.0   10000 
Mon 09:00  SSE 11/ 22  33.7 18.2  1012.2    0.0   0.0   0.0   0.0   10000 
Mon 09:30    S 13/ 19  34.9 18.5  1012.0    0.0   0.0   0.0   0.0   10000 
Mon 10:00  SSE 15/ 24  35.7 18.3  1012.0    0.0   0.0   0.0   0.0   10000 
Mon 10:30    S 11/ 20  36.5 18.1  1011.6    0.0   0.0   0.0   0.0   10000 
Mon 11:00  SSW 13/ 22  37.3 17.8  1011.5    0.0   0.0   0.0   0.0   10000 
Mon 11:30  SSE 11/ 24  38.1 18.0  1011.1    0.0   0.0   0.0   0.0   10000 
Mon 12:00  SSW  7/ 19  38.8 17.5  1010.7    0.0   0.0   0.0   0.0   10000 
Mon 12:30    S  9/ 22  40.5 17.3  1010.2    0.0   0.0   0.0   0.0   10000 
Mon 13:00  SSW 13/ 19  39.8 16.1  1009.9    0.0   0.0   0.0   0.0   10000 
Mon 13:30  SSE 13/ 26  40.3 16.5  1009.5    0.0   0.0   0.0   0.0   10000 

FORTESCUE DAVE FORREST AP

Site: 005FDF
Alt: 450m
124km NNW of NEWMAN


  Time     Wind        Temp  DP   Baro     Rain since   Rain past  Vis(m), Cloud(base in m), Weather
  local        km/h                         9am  last   hr   10m    
Mon 08:00   SW 13/ 20  32.6 18.0  1011.5   ----  ----  ----   0.0   10000 
Mon 08:30    S 11/ 17  33.5 17.6  1012.1   ----  ----  ----   0.0   10000 
Mon 09:00   SE 13/ 19  34.4 18.0  1012.2   ----  ----  ----   0.0   10000 
Mon 09:30  SSE 11/ 20  35.4 18.0  1012.1    0.0  ----  ----   0.0   10000 
Mon 10:00  SSE 13/ 20  36.7 18.3  1011.8    0.0   0.0  ----   0.0   10000 
Mon 10:30   SE 15/ 20  36.8 17.9  1011.7    0.0   0.0   0.0   0.0   10000 
Mon 11:00  SSE  7/ 19  37.7 17.7  1011.4    0.0   0.0   0.0   0.0   10000 
Mon 11:30  WSW  7/ 19  38.5 17.3  1010.8    0.0   0.0   0.0   0.0   10000 
Mon 12:00  WSW  9/ 17  38.3 17.1  1010.6    0.0   0.0   0.0   0.0   10000 
Mon 12:30  WSW 11/ 22  39.3 15.0  1010.1    0.0   0.0   0.0   0.0   10000 
Mon 13:00    S 11/ 24  40.9 15.0  1009.7    0.0   0.0   0.0   0.0   10000 
Mon 13:30    S  7/ 19  41.4 15.4  1009.3    0.0   0.0   0.0   0.0   10000 

KARIJINI NORTH

Site: 005098
Alt: 474.0m
km of


  Time     Wind        Temp  DP   Baro     Rain since   Rain past  Vis(m), Cloud(base in m), Weather
  local        km/h                         9am  last   hr   10m    
Mon 08:00   SW 22/ 30  32.1 17.6  1011.7    0.0   0.0   0.0   0.0   ----- 
Mon 08:30  SSW 17/ 24  33.6 17.7  1011.7    0.0   0.0   0.0   0.0   ----- 
Mon 09:00   SW 17/ 26  34.5 17.3  1011.7    0.0   0.0   0.0   0.0   ----- 
Mon 09:30  SSW 22/ 33  36.6 16.2  1011.2    0.0   0.0   0.0   0.0   ----- 
Mon 10:00   SW 24/ 35  37.7 14.9  1011.1    0.0   0.0   0.0   0.0   ----- 
Mon 10:30  WSW 22/ 32  38.6 12.4  1011.1    0.0   0.0   0.0   0.0   ----- 
Mon 11:00   SW 11/ 24  39.9 14.1  1011.0    0.0   0.0   0.0   0.0   ----- 
Mon 11:30    S 13/ 22  39.5 13.8  1010.8    0.0   0.0   0.0   0.0   ----- 
Mon 12:00    S 17/ 24  40.8 13.4  1010.4    0.0   0.0   0.0   0.0   ----- 
Mon 12:30    E  7/ 19  41.2 12.1  1009.9    0.0   0.0   0.0   0.0   ----- 
Mon 13:00   SW 19/ 24  42.4 12.2  1009.6    0.0   0.0   0.0   0.0   ----- 
Mon 13:30    S  9/ 17  41.3 11.3  1009.1    0.0   0.0   0.0   0.0   ----- 

LEARMONTH AIRPORT

Site: 005007
Alt: 5.0m
34km S of EXMOUTH


  Time     Wind        Temp  DP   Baro     Rain since   Rain past  Vis(m), Cloud(base in m), Weather
  local        km/h                         9am  last   hr   10m    
Mon 08:00   SW 17/ 22  26.6 22.0  1012.0    0.0   0.0   0.0   0.0   10000|SC 600 BR 720 OC 930 
Mon 08:30   SW 17/ 20  27.9 21.4  1012.2    0.0   0.0   0.0   0.0   10000|SC 930 
Mon 09:00  WSW 20/ 24  27.8 21.1  1012.2    0.0   0.0   0.0   0.0   10000|BR 720 
Mon 09:30  WSW 17/ 20  28.1 21.4  1012.4    0.0   0.0   0.0   0.0   10000|OC 720 
Mon 10:00  WSW 17/ 22  28.8 21.6  1012.4    0.0   0.0   0.0   0.0   10000|OC 720 
Mon 10:30   SW 17/ 24  29.9 21.0  1012.1    0.0   0.0   0.0   0.0   10000|OC 840 
Mon 11:00   SW 17/ 32  31.0 21.5  1011.5    0.0   0.0   0.0   0.0   10000|SC 900 
Mon 11:30    W 22/ 28  31.9 20.2  1011.3    0.0   0.0   0.0   0.0   10000 
Mon 12:00  WSW 22/ 33  32.9 21.4  1011.0    0.0   0.0   0.0   0.0   10000 
Mon 12:30  WSW 19/ 28  33.0 20.5  1010.8    0.0   0.0   0.0   0.0   10000 
Mon 13:00    W 22/ 35  34.0 20.4  1010.2    0.0   0.0   0.0   0.0   10000 
Mon 13:30    W 22/ 30  34.5 21.2  1009.8    0.0   0.0   0.0   0.0   10000 

MARDIE

Site: 005008
Alt: 11.0m
103km ENE of ONSLOW


  Time     Wind        Temp  DP   Baro     Rain since   Rain past  Vis(m), Cloud(base in m), Weather
  local        km/h                         9am  last   hr   10m    
Mon 08:00   SW 19/ 24  28.6 22.6  1010.6    0.0   0.0   0.0   0.0   ----- 
Mon 08:30  WSW 19/ 26  29.5 23.0  1010.6    0.0   0.0   0.0   0.0   ----- 
Mon 09:00   SW 19/ 24  30.6 22.7  1010.7    0.0   0.0   0.0   0.0   ----- 
Mon 09:30  WSW 20/ 28  31.4 22.4  1010.5    0.0   0.0   0.0   0.0   ----- 
Mon 10:00  WSW 20/ 32  32.6 22.1  1010.2    0.0   0.0   0.0   0.0   ----- 
Mon 10:30  WSW 22/ 45  33.2 21.7  1009.8    0.0   0.0   0.0   0.0   ----- 
Mon 11:00    W 24/ 37  34.0 23.1  1009.3    0.0   0.0   0.0   0.0   ----- 
Mon 11:30    W 26/ 39  34.3 23.6  1009.0    0.0   0.0   0.0   0.0   ----- 
Mon 12:00    W 32/ 41  34.4 23.7  1008.5    0.0   0.0   0.0   0.0   ----- 
Mon 12:30    W 35/ 45  34.4 23.7  1008.0    0.0   0.0   0.0   0.0   ----- 
Mon 13:00    W 33/ 45  34.7 23.4  1007.8    0.0   0.0   0.0   0.0   ----- 
Mon 13:30    W 33/ 45  34.5 23.5  1007.6    0.0   0.0   0.0   0.0   ----- 

ONSLOW AIRPORT

Site: 005017
Alt: 10.5m
3km S of ONSLOW


  Time     Wind        Temp  DP   Baro     Rain since   Rain past  Vis(m), Cloud(base in m), Weather
  local        km/h                         9am  last   hr   10m    
Mon 08:00  SSW 20/ 24  27.8 22.5  1011.7    0.0   0.0   0.0   0.0   10000 
Mon 08:30  SSW 19/ 26  28.6 22.3  1011.9    0.0   0.0   0.0   0.0   10000 
Mon 09:00   SW 19/ 26  29.4 22.4  1011.9    0.0   0.0   0.0   0.0   10000 
Mon 09:30   SW 19/ 28  30.6 22.5  1012.0    0.0   0.0   0.0   0.0   10000 
Mon 10:00   SW 22/ 28  30.5 21.6  1011.9    0.0   0.0   0.0   0.0   10000 
Mon 10:30  WSW 20/ 33  31.7 21.8  1011.6    0.0   0.0   0.0   0.0   10000 
Mon 11:00   SW 22/ 35  32.2 20.8  1011.2    0.0   0.0   0.0   0.0   10000 
Mon 11:30  WSW 24/ 35  32.7 20.6  1010.8    0.0   0.0   0.0   0.0   10000 
Mon 12:00    W 24/ 35  33.8 21.2  1010.5    0.0   0.0   0.0   0.0   10000 
Mon 12:30  WSW 28/ 43  33.9 20.3  1010.0    0.0   0.0   0.0   0.0   10000 
Mon 13:00  WSW 33/ 45  34.0 20.4  1009.4    0.0   0.0   0.0   0.0   10000 
Mon 13:30  WSW 33/ 43  34.7 20.3  1009.0    0.0   0.0   0.0   0.0   10000 

SOLOMON AERODROME

Site: 005SOL
Alt: 625m
235km WSW of MARBLE BAR


  Time     Wind        Temp  DP   Baro     Rain since   Rain past  Vis(m), Cloud(base in m), Weather
  local        km/h                         9am  last   hr   10m    
Mon 08:00   SW 19/ 26  28.1 20.1  1013.7    0.0   0.0   0.0   0.0   10000 
Mon 08:30   SW 20/ 26  29.1 20.0  1013.7    0.0   0.0   0.0   0.0   10000 
Mon 09:00   SW 19/ 28  30.8 19.8  1014.0    0.0   0.0   0.0   0.0   10000 
Mon 09:30   SW 22/ 30  31.9 19.2  1013.5    0.0   0.0   0.0   0.0   10000 
Mon 10:00   SW 22/ 28  33.3 17.9  1013.4    0.0   0.0   0.0   0.0   10000 
Mon 10:30   SW 24/ 33  34.4 16.7  1013.0    0.0   0.0   0.0   0.0   10000 
Mon 11:00   SW 24/ 33  36.2 16.4  1012.6    0.0   0.0   0.0   0.0   10000 
Mon 11:30   SW 20/ 28  36.6 15.7  1012.3    0.0   0.0   0.0   0.0   10000 
Mon 12:00    S 17/ 22  37.7 13.7  1012.0    0.0   0.0   0.0   0.0   10000 
Mon 12:30    S 19/ 28  38.3 12.8  1011.6    0.0   0.0   0.0   0.0   10000 
Mon 13:00   SW 13/ 24  38.4 12.9  1011.4    0.0   0.0   0.0   0.0   10000 
Mon 13:30    S 19/ 26  39.1 12.8  1011.2    0.0   0.0   0.0   0.0   10000